Time;durP1;ratioP1;P1;durP2;ratioP2;P2;SDS_P1;SDS_P2;PMS_P1;PMS_P2;Temp;Humidity;BMP_temperature;BMP_pressure;BME280_temperature;BME280_humidity;BME280_pressure;Samples;Min_cycle;Max_cycle;Signal;HPM_P1;HPM_P2
2022/09/22 00:00:57;;;;;;;4.87;3.50;;;;;;;;;;5112605;28;20279;-65
2022/09/22 00:03:24;;;;;;;3.53;3.23;;;;;;;;;;5112406;28;20649;-65
2022/09/22 00:06:02;;;;;;;3.93;3.33;;;;;;;;;;5121749;27;20318;-66
2022/09/22 00:08:31;;;;;;;3.60;3.30;;;;;;;;;;5134737;27;20195;-64
2022/09/22 00:10:59;;;;;;;8.50;4.17;;;;;;;;;;5136713;27;20295;-65
2022/09/22 00:13:26;;;;;;;3.60;3.30;;;;;;;;;;5136712;27;20699;-64
2022/09/22 00:15:54;;;;;;;4.13;3.73;;;;;;;;;;5136489;27;20696;-65
2022/09/22 00:18:21;;;;;;;4.03;3.37;;;;;;;;;;5136896;27;20219;-66
2022/09/22 00:20:48;;;;;;;3.40;3.10;;;;;;;;;;5136769;27;20199;-65
2022/09/22 00:23:15;;;;;;;3.70;3.23;;;;;;;;;;5135559;27;20298;-64
2022/09/22 00:25:43;;;;;;;3.33;3.13;;;;;;;;;;5136292;27;20219;-67
2022/09/22 00:28:11;;;;;;;3.60;3.30;;;;;;;;;;5127196;27;20290;-66
2022/09/22 00:30:40;;;;;;;5.57;3.40;;;;;;;;;;5116803;27;20308;-65
2022/09/22 00:33:08;;;;;;;4.30;3.90;;;;;;;;;;5116313;27;20204;-65
2022/09/22 00:35:37;;;;;;;4.07;3.67;;;;;;;;;;5116276;27;20660;-64
2022/09/22 00:38:06;;;;;;;5.57;4.07;;;;;;;;;;5115698;27;20229;-65
2022/09/22 00:40:34;;;;;;;4.10;3.70;;;;;;;;;;5130932;27;20209;-64
2022/09/22 00:43:15;;;;;;;5.93;3.90;;;;;;;;;;5136088;27;20203;-65
2022/09/22 00:45:42;;;;;;;4.40;3.80;;;;;;;;;;5137047;27;20219;-65
2022/09/22 00:48:10;;;;;;;3.83;3.47;;;;;;;;;;5115240;27;20287;-66
2022/09/22 00:50:38;;;;;;;4.77;4.33;;;;;;;;;;5115728;27;20287;-66
2022/09/22 00:53:15;;;;;;;4.70;4.30;;;;;;;;;;5115538;27;20348;-64
2022/09/22 00:55:46;;;;;;;4.13;3.73;;;;;;;;;;5115397;27;20223;-65
2022/09/22 00:58:15;;;;;;;4.30;3.90;;;;;;;;;;5105246;27;20298;-65
2022/09/22 01:00:42;;;;;;;4.33;3.53;;;;;;;;;;5115203;27;20234;-63
2022/09/22 01:03:16;;;;;;;3.93;3.53;;;;;;;;;;5116588;27;20598;-65
2022/09/22 01:05:44;;;;;;;5.30;3.53;;;;;;;;;;5115240;27;20535;-64
2022/09/22 01:08:13;;;;;;;5.57;3.93;;;;;;;;;;5115714;27;20292;-63
2022/09/22 01:10:40;;;;;;;4.20;3.80;;;;;;;;;;5115453;27;20207;-66
2022/09/22 01:13:18;;;;;;;3.93;3.53;;;;;;;;;;5116788;27;20311;-64
2022/09/22 01:15:45;;;;;;;4.77;3.70;;;;;;;;;;5114362;27;20262;-64
2022/09/22 01:18:34;;;;;;;4.37;3.90;;;;;;;;;;5115400;27;20309;-64
2022/09/22 01:21:07;;;;;;;3.60;3.30;;;;;;;;;;5114619;27;20643;-64
2022/09/22 01:23:38;;;;;;;4.00;3.60;;;;;;;;;;5115256;27;20679;-64
2022/09/22 01:26:20;;;;;;;4.33;3.93;;;;;;;;;;5114666;27;20235;-65
2022/09/22 01:29:03;;;;;;;4.50;4.10;;;;;;;;;;5114911;27;20637;-64
2022/09/22 01:31:36;;;;;;;4.43;4.03;;;;;;;;;;5129945;27;20528;-66
2022/09/22 01:34:11;;;;;;;4.53;3.53;;;;;;;;;;5153548;27;20262;-64
2022/09/22 01:36:41;;;;;;;4.57;4.00;;;;;;;;;;5131359;27;20206;-66
2022/09/22 01:39:14;;;;;;;4.43;4.03;;;;;;;;;;5114746;27;20651;-64
2022/09/22 01:41:42;;;;;;;4.13;3.73;;;;;;;;;;5114609;27;20291;-65
2022/09/22 01:44:15;;;;;;;4.47;3.77;;;;;;;;;;5112601;27;20307;-65
2022/09/22 01:46:49;;;;;;;4.37;3.97;;;;;;;;;;5114201;27;20244;-65
2022/09/22 01:49:18;;;;;;;5.13;3.87;;;;;;;;;;5093947;28;20214;-65
2022/09/22 01:51:48;;;;;;;4.03;3.70;;;;;;;;;;5094894;28;20204;-64
2022/09/22 01:54:23;;;;;;;3.57;3.27;;;;;;;;;;5094883;28;20220;-66
2022/09/22 01:56:53;;;;;;;3.77;3.37;;;;;;;;;;5094808;28;20639;-65
2022/09/22 01:59:22;;;;;;;4.27;3.60;;;;;;;;;;5112237;27;20653;-64
2022/09/22 02:01:56;;;;;;;4.07;3.67;;;;;;;;;;5114543;27;20286;-66
2022/09/22 02:04:27;;;;;;;3.40;3.20;;;;;;;;;;5119442;27;20694;-66
2022/09/22 02:07:00;;;;;;;4.10;3.73;;;;;;;;;;5134772;27;20209;-65
2022/09/22 02:09:29;;;;;;;4.27;3.53;;;;;;;;;;5152938;27;20207;-63
2022/09/22 02:11:57;;;;;;;3.90;3.50;;;;;;;;;;5134861;27;20202;-66
2022/09/22 02:14:25;;;;;;;5.40;3.47;;;;;;;;;;5134906;27;20326;-66
2022/09/22 02:16:53;;;;;;;4.17;3.60;;;;;;;;;;5134347;27;20290;-64
2022/09/22 02:19:23;;;;;;;4.00;3.63;;;;;;;;;;5134189;27;20314;-63
2022/09/22 02:21:50;;;;;;;3.87;3.57;;;;;;;;;;5123651;27;20200;-63
2022/09/22 02:24:30;;;;;;;4.20;3.80;;;;;;;;;;5114155;27;20296;-64
2022/09/22 02:26:58;;;;;;;4.00;3.70;;;;;;;;;;5113367;27;20206;-66
2022/09/22 02:29:32;;;;;;;6.60;3.97;;;;;;;;;;5088332;27;20248;-65
2022/09/22 02:32:02;;;;;;;4.00;3.70;;;;;;;;;;5112971;27;20256;-66
2022/09/22 02:34:30;;;;;;;4.40;3.80;;;;;;;;;;5113139;27;20235;-66
2022/09/22 02:37:10;;;;;;;3.77;3.47;;;;;;;;;;5131439;27;20279;-65
2022/09/22 02:39:40;;;;;;;3.70;3.40;;;;;;;;;;5114011;27;20231;-65
2022/09/22 02:42:08;;;;;;;6.30;3.97;;;;;;;;;;5111562;27;20199;-66
2022/09/22 02:44:45;;;;;;;3.97;3.53;;;;;;;;;;5113802;27;20322;-66
2022/09/22 02:47:14;;;;;;;3.83;3.47;;;;;;;;;;5113256;27;20676;-66
2022/09/22 02:49:42;;;;;;;4.13;3.80;;;;;;;;;;5113798;27;20252;-65
2022/09/22 02:52:18;;;;;;;3.97;3.60;;;;;;;;;;5131981;27;20209;-65
2022/09/22 02:54:45;;;;;;;3.43;3.20;;;;;;;;;;5131571;27;20302;-66
2022/09/22 02:57:13;;;;;;;3.63;3.33;;;;;;;;;;5114870;27;20347;-66
2022/09/22 02:59:40;;;;;;;3.80;3.10;;;;;;;;;;5113234;27;20234;-65
2022/09/22 03:02:07;;;;;;;5.07;3.53;;;;;;;;;;5113557;27;20260;-63
2022/09/22 03:04:35;;;;;;;3.90;3.50;;;;;;;;;;5112077;27;20216;-66
2022/09/22 03:07:02;;;;;;;3.57;3.27;;;;;;;;;;5112859;28;20553;-63
2022/09/22 03:09:29;;;;;;;4.70;3.87;;;;;;;;;;5113290;27;20199;-65
2022/09/22 03:11:57;;;;;;;4.97;4.47;;;;;;;;;;5112943;27;20255;-66
2022/09/22 03:14:24;;;;;;;7.03;4.37;;;;;;;;;;5113094;28;20779;-64
2022/09/22 03:16:52;;;;;;;4.37;3.97;;;;;;;;;;5112697;28;20314;-64
2022/09/22 03:19:19;;;;;;;4.10;3.70;;;;;;;;;;5112743;28;20599;-66
2022/09/22 03:21:46;;;;;;;4.30;3.90;;;;;;;;;;5112640;28;20199;-64
2022/09/22 03:24:13;;;;;;;4.20;3.80;;;;;;;;;;5112704;28;20322;-66
2022/09/22 03:26:41;;;;;;;4.33;3.93;;;;;;;;;;5111783;28;20621;-65
2022/09/22 03:29:08;;;;;;;4.13;3.73;;;;;;;;;;5115914;27;20255;-64
2022/09/22 03:31:35;;;;;;;4.33;3.93;;;;;;;;;;5092260;27;20222;-66
2022/09/22 03:34:03;;;;;;;4.13;3.83;;;;;;;;;;5108053;28;20302;-64
2022/09/22 03:36:30;;;;;;;4.50;4.10;;;;;;;;;;5112363;28;20311;-63
2022/09/22 03:38:58;;;;;;;4.63;4.07;;;;;;;;;;5130254;28;20263;-63
2022/09/22 03:41:26;;;;;;;4.17;3.77;;;;;;;;;;5112684;28;20207;-65
2022/09/22 03:43:54;;;;;;;4.00;3.60;;;;;;;;;;5115464;27;20286;-63
2022/09/22 03:46:21;;;;;;;3.97;3.60;;;;;;;;;;5115024;27;20430;-66
2022/09/22 03:48:48;;;;;;;4.97;3.97;;;;;;;;;;5115917;27;20683;-66
2022/09/22 03:51:16;;;;;;;4.30;3.90;;;;;;;;;;5112315;27;20601;-66
2022/09/22 03:53:43;;;;;;;4.10;3.70;;;;;;;;;;5118327;27;20252;-64
2022/09/22 03:56:15;;;;;;;4.20;3.80;;;;;;;;;;5116800;27;20221;-66
2022/09/22 03:58:42;;;;;;;4.80;3.90;;;;;;;;;;5116319;27;20237;-65
2022/09/22 04:01:10;;;;;;;5.50;5.00;;;;;;;;;;5116153;27;20217;-65
2022/09/22 04:03:38;;;;;;;6.10;5.10;;;;;;;;;;5116954;27;20203;-64
2022/09/22 04:06:06;;;;;;;5.50;5.00;;;;;;;;;;5115815;27;20252;-64
2022/09/22 04:08:34;;;;;;;5.33;4.50;;;;;;;;;;5107905;27;20270;-66
2022/09/22 04:11:02;;;;;;;5.20;4.70;;;;;;;;;;5116889;27;20260;-65
2022/09/22 04:13:29;;;;;;;4.73;4.27;;;;;;;;;;5116529;27;20665;-66
2022/09/22 04:15:56;;;;;;;5.50;4.60;;;;;;;;;;5116877;27;20305;-63
2022/09/22 04:18:24;;;;;;;4.13;3.83;;;;;;;;;;5116738;27;20281;-65
2022/09/22 04:20:56;;;;;;;5.00;4.50;;;;;;;;;;5117068;27;20299;-66
2022/09/22 04:23:24;;;;;;;4.67;3.97;;;;;;;;;;5116335;27;20308;-66
2022/09/22 04:25:51;;;;;;;4.50;4.10;;;;;;;;;;5116387;27;20307;-65
2022/09/22 04:28:19;;;;;;;4.93;4.30;;;;;;;;;;5115644;27;20203;-64
2022/09/22 04:30:47;;;;;;;4.80;4.30;;;;;;;;;;5116050;27;20195;-66
2022/09/22 04:33:14;;;;;;;4.80;4.10;;;;;;;;;;5115938;27;20227;-64
2022/09/22 04:35:42;;;;;;;5.30;4.20;;;;;;;;;;5116090;27;20255;-65
2022/09/22 04:38:09;;;;;;;4.53;4.07;;;;;;;;;;5116491;27;20702;-66
2022/09/22 04:40:37;;;;;;;4.70;4.20;;;;;;;;;;5134083;27;20306;-64
2022/09/22 04:43:04;;;;;;;4.97;4.47;;;;;;;;;;5115573;27;20548;-64
2022/09/22 04:45:32;;;;;;;5.90;4.60;;;;;;;;;;5115091;27;20307;-65
2022/09/22 04:48:05;;;;;;;5.23;4.73;;;;;;;;;;5133856;27;20351;-64
2022/09/22 04:50:32;;;;;;;5.93;4.87;;;;;;;;;;5115511;27;20661;-65
2022/09/22 04:53:00;;;;;;;7.53;4.73;;;;;;;;;;5115730;27;20622;-65
2022/09/22 04:55:27;;;;;;;7.33;4.50;;;;;;;;;;5128281;27;20230;-65
2022/09/22 04:57:55;;;;;;;7.83;3.90;;;;;;;;;;5129010;27;20585;-64
2022/09/22 05:00:24;;;;;;;5.57;4.70;;;;;;;;;;5114898;27;20215;-66
2022/09/22 05:02:51;;;;;;;4.57;4.13;;;;;;;;;;5115042;27;20286;-64
2022/09/22 05:05:19;;;;;;;4.67;4.20;;;;;;;;;;5114745;27;20251;-65
2022/09/22 05:07:47;;;;;;;7.93;4.57;;;;;;;;;;5114811;27;20195;-65
2022/09/22 05:10:19;;;;;;;5.13;4.63;;;;;;;;;;5115167;27;20315;-66
2022/09/22 05:12:46;;;;;;;6.10;5.40;;;;;;;;;;5132533;27;20205;-65
2022/09/22 05:15:14;;;;;;;5.30;4.80;;;;;;;;;;5135441;27;20222;-65
2022/09/22 05:17:45;;;;;;;6.33;5.03;;;;;;;;;;5135840;27;20624;-64
2022/09/22 05:20:13;;;;;;;6.40;4.93;;;;;;;;;;5153868;27;20232;-66
2022/09/22 05:22:41;;;;;;;6.23;5.60;;;;;;;;;;5135327;27;20286;-65
2022/09/22 05:25:13;;;;;;;6.33;5.27;;;;;;;;;;5135319;27;20575;-65
2022/09/22 05:27:47;;;;;;;7.00;5.40;;;;;;;;;;5129876;27;20231;-65
2022/09/22 05:30:15;;;;;;;6.50;5.57;;;;;;;;;;5112452;27;20637;-65
2022/09/22 05:32:43;;;;;;;5.80;5.17;;;;;;;;;;5114990;27;20748;-65
2022/09/22 05:35:11;;;;;;;5.77;5.07;;;;;;;;;;5114793;27;20346;-65
2022/09/22 05:37:39;;;;;;;5.30;4.80;;;;;;;;;;5114724;27;20295;-64
2022/09/22 05:40:06;;;;;;;5.50;5.00;;;;;;;;;;5114551;27;20893;-64
2022/09/22 05:42:34;;;;;;;6.17;5.33;;;;;;;;;;5114623;27;20705;-65
2022/09/22 05:45:01;;;;;;;6.67;4.93;;;;;;;;;;5116677;27;20307;-65
2022/09/22 05:47:28;;;;;;;5.87;4.83;;;;;;;;;;5114563;27;20206;-66
2022/09/22 05:49:55;;;;;;;4.60;4.20;;;;;;;;;;5114302;27;20203;-65
2022/09/22 05:52:23;;;;;;;6.30;4.83;;;;;;;;;;5130672;27;20252;-65
2022/09/22 05:54:50;;;;;;;5.07;4.57;;;;;;;;;;5113479;27;20713;-65
2022/09/22 05:57:20;;;;;;;7.93;4.80;;;;;;;;;;5113813;27;20673;-65
2022/09/22 05:59:48;;;;;;;5.77;4.47;;;;;;;;;;5113860;27;20340;-66
2022/09/22 06:02:15;;;;;;;6.33;4.93;;;;;;;;;;5118522;27;20213;-65
2022/09/22 06:04:52;;;;;;;7.63;5.27;;;;;;;;;;5135633;27;20225;-65
2022/09/22 06:07:20;;;;;;;5.90;5.30;;;;;;;;;;5134410;27;20205;-64
2022/09/22 06:09:47;;;;;;;6.73;5.00;;;;;;;;;;5135010;27;20270;-65
2022/09/22 06:12:15;;;;;;;7.47;5.33;;;;;;;;;;5135153;27;20213;-65
2022/09/22 06:14:42;;;;;;;7.30;5.30;;;;;;;;;;5138117;27;20558;-63
2022/09/22 06:17:10;;;;;;;7.37;5.60;;;;;;;;;;5112859;27;20322;-64
2022/09/22 06:19:38;;;;;;;6.97;5.07;;;;;;;;;;5121538;27;20226;-65
2022/09/22 06:22:06;;;;;;;7.53;4.97;;;;;;;;;;5134634;27;20234;-64
2022/09/22 06:24:33;;;;;;;6.07;4.90;;;;;;;;;;5134113;27;20219;-65
2022/09/22 06:27:01;;;;;;;5.23;4.73;;;;;;;;;;5152465;27;20259;-65
2022/09/22 06:29:28;;;;;;;7.60;5.10;;;;;;;;;;5112510;27;20196;-65
2022/09/22 06:31:56;;;;;;;5.37;4.20;;;;;;;;;;5114134;27;20886;-65
2022/09/22 06:34:24;;;;;;;5.87;4.70;;;;;;;;;;5114478;27;20259;-65
2022/09/22 06:36:55;;;;;;;6.00;4.13;;;;;;;;;;5123446;27;20297;-65
2022/09/22 06:39:22;;;;;;;6.33;4.50;;;;;;;;;;5133872;27;20290;-64
2022/09/22 06:41:50;;;;;;;5.63;4.50;;;;;;;;;;5133866;27;20257;-64
2022/09/22 06:44:17;;;;;;;5.70;4.50;;;;;;;;;;5130018;27;20266;-64
2022/09/22 06:46:44;;;;;;;4.67;4.27;;;;;;;;;;5112519;27;20214;-65
2022/09/22 06:49:12;;;;;;;5.87;4.97;;;;;;;;;;5113130;27;20699;-63
2022/09/22 06:51:39;;;;;;;4.93;4.50;;;;;;;;;;5131883;27;20588;-63
2022/09/22 06:54:07;;;;;;;7.53;4.60;;;;;;;;;;5114013;27;20234;-65
2022/09/22 06:56:36;;;;;;;5.17;4.00;;;;;;;;;;5112603;27;20661;-65
2022/09/22 06:59:09;;;;;;;4.03;3.63;;;;;;;;;;5112727;27;20668;-65
2022/09/22 07:01:37;;;;;;;4.67;4.10;;;;;;;;;;5113545;27;20649;-63
2022/09/22 07:04:05;;;;;;;5.63;4.00;;;;;;;;;;5113185;27;20245;-64
2022/09/22 07:06:32;;;;;;;4.73;3.30;;;;;;;;;;5112059;27;20290;-64
2022/09/22 07:08:59;;;;;;;5.20;4.03;;;;;;;;;;5112961;27;20221;-64
2022/09/22 07:11:27;;;;;;;5.03;3.67;;;;;;;;;;5127660;27;20203;-65
2022/09/22 07:13:54;;;;;;;4.30;3.73;;;;;;;;;;5134283;27;20293;-65
2022/09/22 07:16:22;;;;;;;6.50;3.80;;;;;;;;;;5133979;27;20202;-65
2022/09/22 07:18:54;;;;;;;11.50;7.40;;;;;;;;;;5139592;27;20207;-65
2022/09/22 07:21:23;;;;;;;6.20;4.53;;;;;;;;;;5140942;27;20309;-63
2022/09/22 07:23:53;;;;;;;7.13;4.30;;;;;;;;;;5140461;27;20238;-65
2022/09/22 07:26:25;;;;;;;5.40;3.87;;;;;;;;;;5140341;27;20289;-65
2022/09/22 07:28:53;;;;;;;4.77;3.47;;;;;;;;;;5121205;27;20669;-65
2022/09/22 07:31:22;;;;;;;4.70;3.37;;;;;;;;;;5119982;27;20744;-65
2022/09/22 07:33:55;;;;;;;4.43;3.17;;;;;;;;;;5120734;27;20188;-65
2022/09/22 07:36:24;;;;;;;3.43;3.13;;;;;;;;;;5119788;27;20238;-65
2022/09/22 07:38:52;;;;;;;3.10;2.90;;;;;;;;;;5120182;27;20240;-65
2022/09/22 07:41:26;;;;;;;3.07;2.50;;;;;;;;;;5119356;27;20223;-65
2022/09/22 07:45:11;;;;;;;2.80;2.60;;;;;;;;;;5138696;27;20184;-65
2022/09/22 07:46:48;;;;;;;3.43;2.60;;;;;;;;;;5130867;27;20290;-63
2022/09/22 07:49:18;;;;;;;2.80;2.60;;;;;;;;;;5119612;27;20252;-64
2022/09/22 07:51:45;;;;;;;2.53;2.37;;;;;;;;;;5138303;27;20256;-64
2022/09/22 07:54:12;;;;;;;3.20;2.90;;;;;;;;;;5119772;27;20306;-64
2022/09/22 07:56:41;;;;;;;2.63;2.43;;;;;;;;;;5119375;27;20742;-65
2022/09/22 07:59:10;;;;;;;2.73;2.53;;;;;;;;;;5119872;27;20281;-65
2022/09/22 08:01:40;;;;;;;2.40;2.20;;;;;;;;;;5106528;27;20314;-65
2022/09/22 08:04:11;;;;;;;2.40;2.20;;;;;;;;;;5119491;27;20215;-65
2022/09/22 08:06:39;;;;;;;3.70;1.83;;;;;;;;;;5118549;27;20221;-65
2022/09/22 08:09:07;;;;;;;2.27;1.90;;;;;;;;;;5119202;27;20205;-65
2022/09/22 08:11:34;;;;;;;2.07;1.87;;;;;;;;;;5118909;27;20226;-65
2022/09/22 08:14:03;;;;;;;1.70;1.60;;;;;;;;;;5137687;27;20411;-64
2022/09/22 08:16:32;;;;;;;1.90;1.80;;;;;;;;;;5119209;27;20210;-64
2022/09/22 08:19:01;;;;;;;1.80;1.70;;;;;;;;;;5119734;27;20291;-64
2022/09/22 08:21:34;;;;;;;2.10;1.90;;;;;;;;;;5119013;27;20314;-64
2022/09/22 08:24:02;;;;;;;2.90;2.10;;;;;;;;;;5118949;27;20216;-64
2022/09/22 08:26:29;;;;;;;3.97;1.60;;;;;;;;;;5119008;27;20292;-65
2022/09/22 08:28:57;;;;;;;2.53;1.83;;;;;;;;;;5118170;27;20282;-65
2022/09/22 08:31:26;;;;;;;3.13;2.00;;;;;;;;;;5116191;27;20203;-65
2022/09/22 08:33:54;;;;;;;2.03;1.70;;;;;;;;;;5116006;27;20203;-65
2022/09/22 08:36:23;;;;;;;2.30;2.10;;;;;;;;;;5115584;27;20669;-64
2022/09/22 08:38:50;;;;;;;1.70;1.60;;;;;;;;;;5115403;27;20315;-64
2022/09/22 08:41:27;;;;;;;1.37;1.30;;;;;;;;;;5114930;27;20219;-65
2022/09/22 08:44:01;;;;;;;4.27;1.50;;;;;;;;;;5117872;27;20231;-65
2022/09/22 08:46:32;;;;;;;2.50;2.30;;;;;;;;;;5115496;27;20721;-65
2022/09/22 08:51:59;;;;;;;2.23;1.67;;;;;;;;;;5134188;27;20302;-66
2022/09/22 08:54:30;;;;;;;1.20;1.20;;;;;;;;;;5115112;27;20366;-65
2022/09/22 08:57:19;;;;;;;1.70;1.40;;;;;;;;;;5114801;27;20747;-64
2022/09/22 08:59:57;;;;;;;1.33;1.33;;;;;;;;;;5115190;27;20314;-65
2022/09/22 09:02:45;;;;;;;1.50;1.40;;;;;;;;;;5115566;27;20252;-65
2022/09/22 09:05:31;;;;;;;1.70;1.60;;;;;;;;;;5114820;27;20219;-65
2022/09/22 09:08:01;;;;;;;1.50;1.30;;;;;;;;;;5114937;27;20694;-64
2022/09/22 09:10:38;;;;;;;1.67;1.37;;;;;;;;;;5130079;27;20293;-65
2022/09/22 09:13:24;;;;;;;1.30;1.20;;;;;;;;;;5135559;27;20297;-64
2022/09/22 09:16:10;;;;;;;2.00;1.33;;;;;;;;;;5135506;27;20301;-64
2022/09/22 09:18:40;;;;;;;1.33;1.23;;;;;;;;;;5135524;27;20205;-64
2022/09/22 09:21:13;;;;;;;1.40;1.30;;;;;;;;;;5135244;27;20314;-64
2022/09/22 09:23:51;;;;;;;1.40;1.27;;;;;;;;;;5135639;27;20266;-63
2022/09/22 09:26:38;;;;;;;1.70;1.37;;;;;;;;;;5148271;27;20571;-65
2022/09/22 09:29:07;;;;;;;1.20;1.20;;;;;;;;;;5117795;27;20756;-65
2022/09/22 09:31:40;;;;;;;1.17;1.13;;;;;;;;;;5111298;28;20223;-65
2022/09/22 09:34:11;;;;;;;1.60;1.20;;;;;;;;;;5094552;28;20220;-65
2022/09/22 09:36:44;;;;;;;1.50;1.37;;;;;;;;;;5094082;28;20299;-65
2022/09/22 09:39:16;;;;;;;1.53;1.20;;;;;;;;;;5104797;27;20243;-65
2022/09/22 09:41:48;;;;;;;1.07;1.07;;;;;;;;;;5113420;27;20773;-64
2022/09/22 09:44:20;;;;;;;1.90;1.30;;;;;;;;;;5127661;27;20261;-64
2022/09/22 09:46:47;;;;;;;1.50;1.40;;;;;;;;;;5134630;27;20310;-65
2022/09/22 09:49:15;;;;;;;1.77;1.43;;;;;;;;;;5153172;27;20203;-65
2022/09/22 09:51:48;;;;;;;2.13;1.33;;;;;;;;;;5134759;27;20744;-64
2022/09/22 09:54:17;;;;;;;1.20;1.20;;;;;;;;;;5134783;27;20231;-64
2022/09/22 09:57:03;;;;;;;1.50;1.40;;;;;;;;;;5134666;27;20203;-65
2022/09/22 10:02:43;;;;;;;5.50;1.40;;;;;;;;;;5111935;28;20230;-65
2022/09/22 10:05:16;;;;;;;1.43;1.33;;;;;;;;;;5090116;28;20665;-65
2022/09/22 10:07:45;;;;;;;1.10;1.10;;;;;;;;;;5095435;28;20200;-65
2022/09/22 10:10:28;;;;;;;1.03;1.03;;;;;;;;;;5093938;28;20335;-65
2022/09/22 10:13:15;;;;;;;1.40;1.30;;;;;;;;;;5093707;28;20677;-65
2022/09/22 10:15:58;;;;;;;1.73;1.33;;;;;;;;;;5093715;28;20227;-65
2022/09/22 10:18:26;;;;;;;1.70;1.13;;;;;;;;;;5124221;27;20302;-65
2022/09/22 10:21:02;;;;;;;1.37;1.20;;;;;;;;;;5134189;27;20771;-65
2022/09/22 10:23:33;;;;;;;1.13;1.13;;;;;;;;;;5134192;27;20294;-65
2022/09/22 10:26:17;;;;;;;1.93;1.20;;;;;;;;;;5126424;27;20251;-65
2022/09/22 10:28:49;;;;;;;1.02;1.02;;;;;;;;;;5119531;27;20375;-65
2022/09/22 10:31:23;;;;;;;1.27;1.00;;;;;;;;;;5113526;27;20290;-64
2022/09/22 10:33:58;;;;;;;0.93;0.93;;;;;;;;;;5114250;27;20213;-65
2022/09/22 10:36:29;;;;;;;1.27;1.00;;;;;;;;;;5113383;27;20234;-65
2022/09/22 10:38:57;;;;;;;1.37;1.20;;;;;;;;;;5113663;27;20203;-65
2022/09/22 10:41:30;;;;;;;1.00;0.98;;;;;;;;;;5112810;27;20227;-65
2022/09/22 10:44:09;;;;;;;0.95;0.95;;;;;;;;;;5113063;27;20717;-65
2022/09/22 10:47:15;;;;;;;1.40;1.30;;;;;;;;;;5114265;27;20238;-65
2022/09/22 10:49:52;;;;;;;1.10;1.10;;;;;;;;;;5122760;27;20619;-65
2022/09/22 10:52:19;;;;;;;1.10;1.10;;;;;;;;;;5113164;27;20298;-65
2022/09/22 10:55:05;;;;;;;1.67;1.10;;;;;;;;;;5112732;27;20314;-65
2022/09/22 10:57:50;;;;;;;1.45;1.20;;;;;;;;;;5130707;27;20245;-65
2022/09/22 11:00:18;;;;;;;1.55;1.10;;;;;;;;;;5112959;27;20205;-65
2022/09/22 11:02:45;;;;;;;1.27;1.17;;;;;;;;;;5113183;27;20627;-65
2022/09/22 11:05:15;;;;;;;1.10;1.00;;;;;;;;;;5112243;27;20304;-65
2022/09/22 11:14:08;;;;;;;1.20;0.95;;;;;;;;;;5131085;27;20198;-65
2022/09/22 11:16:55;;;;;;;0.90;0.90;;;;;;;;;;5081837;28;20290;-65
2022/09/22 11:19:23;;;;;;;1.10;1.00;;;;;;;;;;5112857;28;20481;-65
2022/09/22 11:22:09;;;;;;;0.88;0.88;;;;;;;;;;5113078;28;20277;-65
2022/09/22 11:24:37;;;;;;;0.93;0.90;;;;;;;;;;5112213;28;20262;-65
2022/09/22 11:27:08;;;;;;;1.20;1.20;;;;;;;;;;5114727;28;20291;-65
2022/09/22 11:29:54;;;;;;;1.50;1.40;;;;;;;;;;5114894;28;20195;-65
2022/09/22 11:32:25;;;;;;;1.00;0.90;;;;;;;;;;5128729;28;20199;-64
2022/09/22 11:34:55;;;;;;;1.02;0.93;;;;;;;;;;5112590;28;20310;-65
2022/09/22 11:37:41;;;;;;;2.53;0.98;;;;;;;;;;5112445;28;20362;-64
2022/09/22 11:40:28;;;;;;;1.73;1.00;;;;;;;;;;5105473;28;20449;-65
2022/09/22 11:42:55;;;;;;;1.33;0.90;;;;;;;;;;5103311;28;20211;-65
2022/09/22 11:45:35;;;;;;;1.10;1.10;;;;;;;;;;5114082;28;20500;-65
2022/09/22 11:48:09;;;;;;;1.85;0.98;;;;;;;;;;5111651;28;20681;-65
2022/09/22 11:50:38;;;;;;;1.23;1.13;;;;;;;;;;5110345;28;20314;-65
2022/09/22 11:53:05;;;;;;;0.70;0.70;;;;;;;;;;5092351;28;20708;-65
2022/09/22 11:55:42;;;;;;;1.05;0.82;;;;;;;;;;5109534;28;20311;-65
2022/09/22 11:58:12;;;;;;;1.85;1.02;;;;;;;;;;5112773;28;20203;-65
2022/09/22 12:00:44;;;;;;;1.00;1.00;;;;;;;;;;5112708;28;20203;-65
2022/09/22 12:03:17;;;;;;;0.80;0.80;;;;;;;;;;5112867;27;20242;-65
2022/09/22 12:05:51;;;;;;;1.30;0.85;;;;;;;;;;5115830;27;20681;-65
2022/09/22 12:08:23;;;;;;;1.20;1.10;;;;;;;;;;5115946;27;20204;-65
2022/09/22 12:10:51;;;;;;;1.30;1.10;;;;;;;;;;5116173;27;20227;-65
2022/09/22 12:13:24;;;;;;;1.00;1.00;;;;;;;;;;5114796;27;20287;-65
2022/09/22 12:16:10;;;;;;;1.52;1.33;;;;;;;;;;5118731;27;20596;-65
2022/09/22 12:18:47;;;;;;;1.23;1.13;;;;;;;;;;5136696;27;20198;-64
2022/09/22 12:21:22;;;;;;;1.40;1.17;;;;;;;;;;5136232;27;20302;-64
2022/09/22 12:23:50;;;;;;;0.93;0.93;;;;;;;;;;5116280;27;20199;-64
2022/09/22 12:26:31;;;;;;;0.88;0.85;;;;;;;;;;5116223;27;20453;-64
2022/09/22 12:29:00;;;;;;;1.35;1.20;;;;;;;;;;5116335;27;20242;-65
2022/09/22 12:31:39;;;;;;;0.90;0.90;;;;;;;;;;5123554;27;20287;-65
2022/09/22 12:34:14;;;;;;;0.90;0.90;;;;;;;;;;5116320;27;20227;-64
2022/09/22 12:36:42;;;;;;;1.00;1.00;;;;;;;;;;5116024;27;20298;-64
2022/09/22 12:39:12;;;;;;;0.90;0.90;;;;;;;;;;5113783;27;20286;-65
2022/09/22 12:41:58;;;;;;;0.90;0.90;;;;;;;;;;5120883;27;20274;-64
2022/09/22 12:44:29;;;;;;;0.93;0.93;;;;;;;;;;5124061;27;20225;-64
2022/09/22 12:47:00;;;;;;;1.50;1.40;;;;;;;;;;5115680;27;20582;-65
2022/09/22 12:49:28;;;;;;;0.90;0.90;;;;;;;;;;5116075;27;20210;-65
2022/09/22 12:51:56;;;;;;;0.85;0.85;;;;;;;;;;5115964;27;20302;-65
2022/09/22 12:54:26;;;;;;;2.00;1.80;;;;;;;;;;5115579;27;20249;-65
2022/09/22 12:56:53;;;;;;;1.25;1.15;;;;;;;;;;5115702;27;20245;-65
2022/09/22 12:59:36;;;;;;;1.05;1.00;;;;;;;;;;5115308;27;20290;-65
2022/09/22 13:02:16;;;;;;;3.75;1.10;;;;;;;;;;5115940;27;20298;-64
2022/09/22 13:04:55;;;;;;;1.60;1.50;;;;;;;;;;5115171;27;20594;-64
2022/09/22 13:07:49;;;;;;;1.65;1.10;;;;;;;;;;5116240;27;20229;-64
2022/09/22 13:10:23;;;;;;;1.40;1.30;;;;;;;;;;5111805;27;20216;-64
2022/09/22 13:13:05;;;;;;;1.80;1.70;;;;;;;;;;5115799;27;20204;-64
2022/09/22 13:15:48;;;;;;;1.95;1.20;;;;;;;;;;5114120;27;20318;-64
2022/09/22 13:18:29;;;;;;;1.20;1.00;;;;;;;;;;5115377;27;20203;-65
2022/09/22 13:20:57;;;;;;;1.13;1.10;;;;;;;;;;5114763;27;20292;-65
2022/09/22 13:23:25;;;;;;;2.05;1.25;;;;;;;;;;5115248;27;20196;-65
2022/09/22 13:25:52;;;;;;;1.27;1.27;;;;;;;;;;5115758;27;20280;-65
2022/09/22 13:28:24;;;;;;;4.32;1.20;;;;;;;;;;5114450;27;20207;-65
2022/09/22 13:30:59;;;;;;;0.90;0.90;;;;;;;;;;5114061;27;20195;-64
2022/09/22 13:33:33;;;;;;;1.45;1.33;;;;;;;;;;5115423;27;20544;-65
2022/09/22 13:36:22;;;;;;;1.25;1.08;;;;;;;;;;5114135;27;20222;-64
2022/09/22 13:38:53;;;;;;;1.20;1.10;;;;;;;;;;5131476;27;20665;-65
2022/09/22 13:41:22;;;;;;;2.33;1.20;;;;;;;;;;5120122;27;20254;-65
2022/09/22 13:43:55;;;;;;;1.60;1.20;;;;;;;;;;5135317;27;20559;-64
2022/09/22 13:46:30;;;;;;;1.30;1.20;;;;;;;;;;5134550;27;20297;-64
2022/09/22 13:48:58;;;;;;;1.75;1.38;;;;;;;;;;5135188;27;20266;-65
2022/09/22 13:51:26;;;;;;;2.13;1.23;;;;;;;;;;5139250;27;20199;-65
2022/09/22 13:53:55;;;;;;;1.10;1.00;;;;;;;;;;5139190;27;20264;-65
2022/09/22 13:56:23;;;;;;;2.00;1.13;;;;;;;;;;5134770;27;20203;-65
2022/09/22 13:58:54;;;;;;;1.85;1.33;;;;;;;;;;5122434;27;20679;-65
2022/09/22 14:01:23;;;;;;;1.25;1.15;;;;;;;;;;5117041;27;20219;-64
2022/09/22 14:03:51;;;;;;;1.88;1.10;;;;;;;;;;5133808;27;20282;-64
2022/09/22 14:06:19;;;;;;;1.73;1.30;;;;;;;;;;5113384;27;20704;-64
2022/09/22 14:08:48;;;;;;;1.67;1.40;;;;;;;;;;5113909;27;20286;-66
2022/09/22 14:11:18;;;;;;;1.35;1.25;;;;;;;;;;5114216;27;20293;-65
2022/09/22 14:13:55;;;;;;;2.63;1.27;;;;;;;;;;5114021;27;20688;-65
2022/09/22 14:16:25;;;;;;;3.25;1.50;;;;;;;;;;5127496;27;20234;-65
2022/09/22 14:18:57;;;;;;;1.25;1.20;;;;;;;;;;5150786;27;20203;-66
2022/09/22 14:21:24;;;;;;;2.50;1.48;;;;;;;;;;5113966;27;20223;-65
2022/09/22 14:23:52;;;;;;;1.83;1.30;;;;;;;;;;5113777;27;20286;-65
2022/09/22 14:26:32;;;;;;;1.70;1.60;;;;;;;;;;5113438;27;20288;-64
2022/09/22 14:29:13;;;;;;;2.17;1.40;;;;;;;;;;5113747;27;20650;-65
2022/09/22 14:31:44;;;;;;;2.15;1.73;;;;;;;;;;5123194;27;20199;-65
2022/09/22 14:34:16;;;;;;;1.40;1.30;;;;;;;;;;5092942;28;20220;-65
2022/09/22 14:36:45;;;;;;;1.13;1.13;;;;;;;;;;5093047;28;20382;-65
2022/09/22 14:39:16;;;;;;;2.97;1.20;;;;;;;;;;5093074;28;20299;-65
2022/09/22 14:41:50;;;;;;;1.20;1.13;;;;;;;;;;5092830;28;20270;-65
2022/09/22 14:44:26;;;;;;;1.30;1.20;;;;;;;;;;5093036;28;20224;-66
2022/09/22 14:46:55;;;;;;;1.52;1.42;;;;;;;;;;5092729;28;20303;-66
2022/09/22 14:49:36;;;;;;;1.35;1.05;;;;;;;;;;5099740;27;20203;-65
2022/09/22 14:52:06;;;;;;;1.48;1.20;;;;;;;;;;5112978;27;20235;-65
2022/09/22 14:54:34;;;;;;;2.80;1.40;;;;;;;;;;5113425;27;20310;-65
2022/09/22 14:57:04;;;;;;;2.00;1.52;;;;;;;;;;5113719;27;20264;-65
2022/09/22 15:02:31;;;;;;;1.60;1.42;;;;;;;;;;5131196;27;20736;-65
2022/09/22 15:05:03;;;;;;;1.50;1.40;;;;;;;;;;5112980;27;20226;-66
2022/09/22 15:07:39;;;;;;;1.50;1.40;;;;;;;;;;5112651;27;20206;-65
2022/09/22 15:10:20;;;;;;;1.95;1.20;;;;;;;;;;5112933;28;20302;-65
2022/09/22 15:12:48;;;;;;;1.50;1.38;;;;;;;;;;5113320;27;20238;-64
2022/09/22 15:15:25;;;;;;;3.55;1.55;;;;;;;;;;5113451;27;20650;-65
2022/09/22 15:18:15;;;;;;;2.55;1.35;;;;;;;;;;5112847;28;20737;-65
2022/09/22 15:20:43;;;;;;;2.15;1.30;;;;;;;;;;5113697;28;20202;-65
2022/09/22 15:23:13;;;;;;;2.25;1.08;;;;;;;;;;5113340;28;20722;-65